Time;durP1;ratioP1;P1;durP2;ratioP2;P2;SDS_P1;SDS_P2;PMS_P1;PMS_P2;Temp;Humidity;BMP_temperature;BMP_pressure;BME280_temperature;BME280_humidity;BME280_pressure;Samples;Min_cycle;Max_cycle;Signal;HPM_P1;HPM_P2
2023/12/08 00:00:26;;;;;;;18.20;11.80;;;0.80;99.90;;;;;;5055149;28;20530;-74
2023/12/08 00:02:52;;;;;;;29.00;12.80;;;0.80;99.90;;;;;;5072981;28;20172;-74
2023/12/08 00:05:18;;;;;;;23.57;13.50;;;0.80;99.90;;;;;;5072070;28;20487;-74
2023/12/08 00:07:44;;;;;;;19.43;12.03;;;0.80;99.90;;;;;;5059690;28;20436;-74
2023/12/08 00:10:09;;;;;;;28.07;15.27;;;0.70;99.90;;;;;;5051927;28;20546;-74
2023/12/08 00:12:35;;;;;;;25.03;13.80;;;0.70;99.90;;;;;;5052184;28;20178;-73
2023/12/08 00:15:01;;;;;;;22.10;12.80;;;0.70;99.90;;;;;;5049358;28;20475;-74
2023/12/08 00:17:27;;;;;;;22.10;13.80;;;0.70;99.90;;;;;;5052325;28;20417;-74
2023/12/08 00:19:53;;;;;;;34.50;14.20;;;0.80;99.90;;;;;;5051490;28;20171;-73
2023/12/08 00:22:19;;;;;;;24.23;12.27;;;0.80;99.90;;;;;;5057033;28;20272;-74
2023/12/08 00:24:45;;;;;;;25.57;13.63;;;0.80;99.90;;;;;;5074158;28;20462;-76
2023/12/08 00:27:10;;;;;;;25.53;14.83;;;0.90;99.90;;;;;;5076485;28;20204;-74
2023/12/08 00:29:36;;;;;;;22.50;13.83;;;0.90;99.90;;;;;;5076796;28;20666;-75
2023/12/08 00:32:02;;;;;;;23.67;13.90;;;1.00;99.90;;;;;;5076386;28;20177;-74
2023/12/08 00:34:27;;;;;;;33.10;14.40;;;1.00;99.90;;;;;;5076358;28;20166;-74
2023/12/08 00:36:53;;;;;;;25.23;14.20;;;1.00;99.90;;;;;;5072758;28;20205;-74
2023/12/08 00:39:19;;;;;;;33.30;16.33;;;1.00;99.90;;;;;;5076585;28;20293;-74
2023/12/08 00:41:44;;;;;;;27.33;15.10;;;1.10;99.90;;;;;;5068788;28;20175;-74
2023/12/08 00:44:11;;;;;;;28.07;13.87;;;1.10;99.90;;;;;;5056652;28;20171;-74
2023/12/08 00:46:36;;;;;;;32.43;16.10;;;1.00;99.90;;;;;;5055363;28;20628;-74
2023/12/08 00:49:02;;;;;;;28.40;14.70;;;1.00;99.90;;;;;;5066475;28;20458;-74
2023/12/08 00:51:28;;;;;;;28.43;14.40;;;1.00;99.90;;;;;;5075663;28;20208;-73
2023/12/08 00:53:53;;;;;;;26.30;14.50;;;1.00;99.90;;;;;;5076323;28;20170;-74
2023/12/08 00:56:19;;;;;;;28.87;14.77;;;1.00;99.90;;;;;;5075295;28;20158;-74
2023/12/08 00:58:45;;;;;;;27.30;15.10;;;1.00;99.90;;;;;;5076051;28;20551;-74
2023/12/08 01:01:11;;;;;;;31.63;16.43;;;1.00;99.90;;;;;;5076126;28;20594;-74
2023/12/08 01:03:36;;;;;;;29.43;15.50;;;0.90;99.90;;;;;;5064983;28;20297;-74
2023/12/08 01:06:02;;;;;;;25.83;14.07;;;0.90;99.90;;;;;;5055268;28;20801;-74
2023/12/08 01:08:28;;;;;;;33.83;15.57;;;0.80;99.90;;;;;;5055131;28;20234;-74
2023/12/08 01:10:53;;;;;;;29.50;15.17;;;0.80;99.90;;;;;;5060695;28;20174;-75
2023/12/08 01:13:19;;;;;;;23.27;12.57;;;0.80;99.90;;;;;;5076039;28;20213;-74
2023/12/08 01:15:45;;;;;;;29.13;15.27;;;0.80;99.90;;;;;;5074682;28;20162;-78
2023/12/08 01:18:11;;;;;;;24.13;14.88;;;0.80;99.90;;;;;;5075760;28;20193;-73
2023/12/08 01:20:37;;;;;;;26.00;14.60;;;0.80;99.90;;;;;;5066595;28;20170;-73
2023/12/08 01:23:02;;;;;;;29.10;16.47;;;0.80;99.90;;;;;;5053605;28;20172;-74
2023/12/08 01:25:28;;;;;;;24.40;14.00;;;0.90;99.90;;;;;;5038298;28;20217;-74
2023/12/08 01:27:56;;;;;;;26.30;14.27;;;0.90;99.90;;;;;;5073935;28;20202;-73
2023/12/08 01:30:22;;;;;;;28.63;15.97;;;0.90;99.90;;;;;;5075625;28;20180;-73
2023/12/08 01:32:48;;;;;;;26.80;14.93;;;0.90;99.90;;;;;;5073354;28;20424;-74
2023/12/08 01:35:14;;;;;;;22.97;14.33;;;0.90;99.90;;;;;;5074275;28;20450;-74
2023/12/08 01:37:39;;;;;;;23.60;14.17;;;1.00;99.90;;;;;;5073162;28;20198;-74
2023/12/08 01:40:06;;;;;;;28.93;14.00;;;0.90;99.90;;;;;;5075484;28;20193;-73
2023/12/08 01:42:32;;;;;;;34.23;16.77;;;0.90;99.90;;;;;;5071908;28;20635;-74
2023/12/08 01:44:58;;;;;;;26.17;15.60;;;0.90;99.90;;;;;;5072896;28;20436;-74
2023/12/08 01:47:24;;;;;;;29.73;17.17;;;0.90;99.90;;;;;;5074325;28;20305;-73
2023/12/08 01:49:51;;;;;;;27.53;16.90;;;0.90;99.90;;;;;;5075128;28;20479;-74
2023/12/08 01:52:22;;;;;;;24.40;16.00;;;0.90;99.90;;;;;;5072047;28;20549;-74
2023/12/08 01:54:53;;;;;;;24.10;13.63;;;0.90;99.90;;;;;;5072976;28;21299;-73
2023/12/08 01:57:19;;;;;;;25.83;15.63;;;0.90;99.90;;;;;;5075110;28;20981;-73
2023/12/08 01:59:47;;;;;;;25.80;13.57;;;1.00;99.90;;;;;;5074884;28;20525;-74
2023/12/08 02:02:13;;;;;;;25.38;15.77;;;0.90;99.90;;;;;;5064649;28;20964;-73
2023/12/08 02:04:43;;;;;;;24.70;15.47;;;0.90;99.90;;;;;;5054058;28;20558;-73
2023/12/08 02:07:09;;;;;;;24.43;15.00;;;1.00;99.90;;;;;;5063962;28;20448;-73
2023/12/08 02:09:35;;;;;;;24.87;14.80;;;1.00;99.90;;;;;;5071210;28;20605;-74
2023/12/08 02:12:01;;;;;;;29.50;15.10;;;1.00;99.90;;;;;;5073476;28;20436;-73
2023/12/08 02:14:27;;;;;;;22.57;14.60;;;1.00;99.90;;;;;;5074324;28;20392;-74
2023/12/08 02:17:19;;;;;;;24.90;14.77;;;1.10;99.90;;;;;;5073841;28;20266;-74
2023/12/08 02:19:46;;;;;;;31.10;16.93;;;1.00;99.90;;;;;;5072610;28;20417;-73
2023/12/08 02:22:12;;;;;;;31.00;14.53;;;1.00;99.90;;;;;;5074543;28;21043;-74
2023/12/08 02:24:38;;;;;;;21.17;14.13;;;1.00;99.90;;;;;;5060462;28;20478;-74
2023/12/08 02:27:04;;;;;;;24.57;13.30;;;1.00;99.90;;;;;;5074527;28;20205;-73
2023/12/08 02:29:30;;;;;;;22.13;15.00;;;0.90;99.90;;;;;;5074516;28;20665;-73
2023/12/08 02:32:02;;;;;;;27.47;15.60;;;0.90;99.90;;;;;;5074162;28;20396;-74
2023/12/08 02:34:30;;;;;;;17.40;12.50;;;0.90;99.90;;;;;;5073768;28;20438;-73
2023/12/08 02:36:58;;;;;;;24.40;15.57;;;0.90;99.90;;;;;;5074002;28;20417;-74
2023/12/08 02:39:26;;;;;;;24.67;16.87;;;0.90;99.90;;;;;;5066975;28;20439;-73
2023/12/08 02:41:52;;;;;;;26.07;14.83;;;1.00;99.90;;;;;;5074059;28;20432;-74
2023/12/08 02:44:17;;;;;;;21.53;14.13;;;1.00;99.90;;;;;;5074154;28;20751;-74
2023/12/08 02:46:43;;;;;;;21.93;15.50;;;0.90;99.90;;;;;;5071425;28;20296;-73
2023/12/08 02:49:09;;;;;;;25.00;15.73;;;0.80;99.90;;;;;;5074063;28;20190;-73
2023/12/08 02:51:35;;;;;;;23.20;14.13;;;0.80;99.90;;;;;;5073678;28;20458;-74
2023/12/08 02:54:00;;;;;;;20.57;13.20;;;0.80;99.90;;;;;;5071511;28;20675;-74
2023/12/08 02:56:26;;;;;;;26.00;16.03;;;0.80;99.90;;;;;;5072650;28;20562;-74
2023/12/08 02:58:52;;;;;;;23.13;13.97;;;0.70;99.90;;;;;;5074034;28;20189;-75
2023/12/08 03:01:17;;;;;;;25.47;14.00;;;0.70;99.90;;;;;;5073695;28;20170;-73
2023/12/08 03:03:43;;;;;;;23.47;14.03;;;0.60;99.90;;;;;;5073868;28;20166;-73
2023/12/08 03:06:09;;;;;;;23.23;14.23;;;0.60;99.90;;;;;;5065925;28;20182;-74
2023/12/08 03:08:35;;;;;;;21.57;15.07;;;0.70;99.90;;;;;;5053501;28;20210;-73
2023/12/08 03:11:01;;;;;;;24.40;15.70;;;0.60;99.90;;;;;;5053332;28;20174;-74
2023/12/08 03:13:27;;;;;;;22.53;13.87;;;0.60;99.90;;;;;;5053766;28;20410;-73
2023/12/08 03:15:53;;;;;;;21.40;13.07;;;0.60;99.90;;;;;;5051151;28;20186;-73
2023/12/08 03:18:18;;;;;;;26.03;15.17;;;0.60;99.90;;;;;;5053172;28;20433;-74
2023/12/08 03:20:44;;;;;;;22.70;16.10;;;0.60;99.90;;;;;;5051996;28;20268;-73
2023/12/08 03:23:09;;;;;;;25.87;15.87;;;0.60;99.90;;;;;;5044019;28;20183;-73
2023/12/08 03:25:35;;;;;;;22.87;14.53;;;0.50;99.90;;;;;;5032628;28;20222;-75
2023/12/08 03:28:01;;;;;;;24.30;13.87;;;0.50;99.90;;;;;;5041585;28;20201;-74
2023/12/08 03:30:27;;;;;;;27.53;17.33;;;0.60;99.90;;;;;;5073007;28;20158;-75
2023/12/08 03:32:52;;;;;;;18.73;13.60;;;0.60;99.90;;;;;;5072978;28;20570;-75
2023/12/08 03:35:20;;;;;;;23.90;13.20;;;0.60;99.90;;;;;;5069697;28;20538;-73
2023/12/08 03:37:46;;;;;;;21.93;13.57;;;0.50;99.90;;;;;;5072870;28;20190;-73
2023/12/08 03:40:11;;;;;;;25.73;14.70;;;0.60;99.90;;;;;;5070920;28;20397;-74
2023/12/08 03:42:37;;;;;;;27.30;15.90;;;0.60;99.90;;;;;;5073019;28;20201;-73
2023/12/08 03:45:04;;;;;;;29.97;16.50;;;0.70;99.90;;;;;;5072283;28;20400;-73
2023/12/08 03:47:30;;;;;;;22.03;15.20;;;0.70;99.90;;;;;;5072645;28;20198;-73
2023/12/08 03:49:56;;;;;;;19.53;13.27;;;0.80;99.90;;;;;;5072965;28;20452;-73
2023/12/08 03:52:21;;;;;;;26.00;15.90;;;0.80;99.90;;;;;;5070536;28;20185;-73
2023/12/08 03:54:47;;;;;;;19.07;13.70;;;0.70;99.90;;;;;;5072200;28;20174;-74
2023/12/08 03:57:13;;;;;;;22.23;14.00;;;0.70;99.90;;;;;;5072814;28;20638;-73
2023/12/08 03:59:41;;;;;;;25.17;14.87;;;0.70;99.90;;;;;;5067156;28;20197;-73
2023/12/08 04:02:06;;;;;;;19.37;15.57;;;0.60;99.90;;;;;;5063083;28;20181;-73
2023/12/08 04:04:32;;;;;;;20.17;15.73;;;0.50;99.90;;;;;;5072001;28;20521;-79
2023/12/08 04:06:58;;;;;;;22.10;14.73;;;0.60;99.90;;;;;;5072538;28;20186;-75
2023/12/08 04:09:24;;;;;;;21.70;14.43;;;0.60;99.90;;;;;;5072580;28;20546;-73
2023/12/08 04:11:50;;;;;;;26.13;15.40;;;0.60;99.90;;;;;;5072954;28;20167;-73
2023/12/08 04:14:15;;;;;;;25.97;15.93;;;0.60;99.90;;;;;;5072952;28;20397;-76
2023/12/08 04:16:41;;;;;;;22.13;14.00;;;0.50;99.90;;;;;;5058192;28;20194;-75
2023/12/08 04:19:06;;;;;;;23.60;13.60;;;0.50;99.90;;;;;;5052583;28;20205;-74
2023/12/08 04:21:32;;;;;;;22.47;15.37;;;0.50;99.90;;;;;;5065960;28;20181;-76
2023/12/08 04:23:58;;;;;;;25.37;14.83;;;0.40;99.90;;;;;;5072717;28;20178;-73
2023/12/08 04:26:27;;;;;;;23.77;14.57;;;0.50;99.90;;;;;;5071352;28;20631;-74
2023/12/08 04:28:53;;;;;;;27.35;15.15;;;0.50;99.90;;;;;;5065052;28;20453;-77
2023/12/08 04:31:19;;;;;;;21.50;14.85;;;0.50;99.90;;;;;;5052673;28;20167;-73
2023/12/08 04:33:45;;;;;;;25.53;14.67;;;0.40;99.90;;;;;;5052611;28;20677;-74
2023/12/08 04:36:10;;;;;;;25.10;14.37;;;0.40;99.90;;;;;;5051640;28;20488;-73
2023/12/08 04:38:36;;;;;;;26.83;14.97;;;0.40;99.90;;;;;;5052478;28;20285;-73
2023/12/08 04:41:02;;;;;;;28.90;16.53;;;0.40;99.90;;;;;;5052289;28;20163;-73
2023/12/08 04:43:28;;;;;;;22.57;14.50;;;0.40;99.90;;;;;;5058570;28;20177;-73
2023/12/08 04:45:53;;;;;;;27.40;15.87;;;0.30;99.90;;;;;;5070382;28;20678;-74
2023/12/08 04:48:19;;;;;;;24.57;14.77;;;0.30;99.90;;;;;;5072307;28;20198;-74
2023/12/08 04:50:46;;;;;;;25.93;14.80;;;0.30;99.90;;;;;;5070419;28;20630;-73
2023/12/08 04:53:11;;;;;;;31.10;16.33;;;0.40;99.90;;;;;;5072478;28;20163;-74
2023/12/08 04:55:37;;;;;;;28.03;15.67;;;0.30;99.90;;;;;;5071337;28;20185;-73
2023/12/08 04:58:03;;;;;;;30.63;15.67;;;0.30;99.90;;;;;;5071324;28;20201;-73
2023/12/08 05:00:29;;;;;;;29.87;17.20;;;0.30;99.90;;;;;;5072016;28;20493;-74
2023/12/08 05:02:57;;;;;;;30.23;16.70;;;0.30;99.90;;;;;;5069628;28;20173;-75
2023/12/08 05:05:23;;;;;;;29.02;17.55;;;0.40;99.90;;;;;;5071307;28;20169;-73
2023/12/08 05:07:50;;;;;;;25.00;15.55;;;0.40;99.90;;;;;;5072275;28;20197;-74
2023/12/08 05:10:16;;;;;;;28.43;15.70;;;0.40;99.90;;;;;;5069835;28;20699;-75
2023/12/08 05:12:42;;;;;;;23.67;16.52;;;0.40;99.90;;;;;;5076043;28;20915;-74
2023/12/08 05:15:08;;;;;;;29.10;15.70;;;0.50;99.90;;;;;;5074550;28;20644;-76
2023/12/08 05:17:34;;;;;;;24.00;16.27;;;0.50;99.90;;;;;;5049119;28;20199;-74
2023/12/08 05:20:03;;;;;;;25.60;17.77;;;0.50;99.90;;;;;;5035862;28;20895;-74
2023/12/08 05:22:28;;;;;;;25.80;16.52;;;0.50;99.90;;;;;;5062869;28;20712;-74
2023/12/08 05:24:54;;;;;;;30.43;17.50;;;0.60;99.90;;;;;;5074804;28;20201;-73
2023/12/08 05:27:20;;;;;;;28.67;16.40;;;0.50;99.90;;;;;;5075631;28;20436;-75
2023/12/08 05:29:45;;;;;;;22.70;14.00;;;0.40;99.90;;;;;;5075548;28;20210;-74
2023/12/08 05:32:12;;;;;;;26.40;14.80;;;0.50;99.90;;;;;;5056030;28;20171;-74
2023/12/08 05:34:37;;;;;;;25.40;15.27;;;0.50;99.90;;;;;;5054302;28;20570;-75
2023/12/08 05:37:03;;;;;;;26.87;17.40;;;0.50;99.90;;;;;;5055227;28;20187;-74
2023/12/08 05:39:29;;;;;;;25.57;15.00;;;0.50;99.90;;;;;;5055433;28;20220;-73
2023/12/08 05:41:55;;;;;;;25.63;14.90;;;0.40;99.90;;;;;;5054050;28;20972;-74
2023/12/08 05:44:20;;;;;;;30.13;13.77;;;0.40;99.90;;;;;;5055344;28;20178;-74
2023/12/08 05:46:46;;;;;;;27.83;16.93;;;0.50;99.90;;;;;;5054513;28;20207;-73
2023/12/08 05:49:12;;;;;;;24.67;14.40;;;0.50;99.90;;;;;;5055264;28;20191;-73
2023/12/08 05:51:37;;;;;;;24.87;15.70;;;0.50;99.90;;;;;;5054671;28;20177;-75
2023/12/08 05:54:03;;;;;;;25.63;16.40;;;0.50;99.90;;;;;;5054953;28;20181;-74
2023/12/08 05:56:29;;;;;;;29.03;15.43;;;0.50;99.90;;;;;;5059634;28;20249;-74
2023/12/08 05:58:54;;;;;;;25.27;15.40;;;0.60;99.90;;;;;;5075243;28;20411;-75
2023/12/08 06:01:21;;;;;;;22.27;14.70;;;0.60;99.90;;;;;;5071943;28;20659;-78
2023/12/08 06:03:47;;;;;;;27.83;17.58;;;0.60;99.90;;;;;;5072402;28;20280;-74
2023/12/08 06:06:13;;;;;;;30.40;15.90;;;0.60;99.90;;;;;;5073182;28;20682;-74
2023/12/08 06:08:39;;;;;;;31.73;17.40;;;0.60;99.90;;;;;;5073487;28;20456;-75
2023/12/08 06:11:05;;;;;;;29.40;17.63;;;0.60;99.90;;;;;;5070670;28;20190;-73
2023/12/08 06:13:31;;;;;;;29.20;16.75;;;0.60;99.90;;;;;;5073215;28;20171;-73
2023/12/08 06:15:57;;;;;;;27.20;16.43;;;0.60;99.90;;;;;;5072775;28;20177;-74
2023/12/08 06:18:22;;;;;;;32.13;17.03;;;0.70;99.90;;;;;;5074724;28;20226;-74
2023/12/08 06:20:49;;;;;;;37.73;19.47;;;0.70;99.90;;;;;;5074068;28;20196;-74
2023/12/08 06:23:14;;;;;;;32.22;18.33;;;0.80;99.90;;;;;;5073935;28;20407;-73
2023/12/08 06:25:40;;;;;;;27.37;16.53;;;0.80;99.90;;;;;;5073637;28;20193;-74
2023/12/08 06:28:05;;;;;;;36.93;18.67;;;0.80;99.90;;;;;;5062928;28;20206;-76
2023/12/08 06:30:31;;;;;;;34.37;17.87;;;0.80;99.90;;;;;;5053997;28;20697;-73
2023/12/08 06:32:57;;;;;;;29.57;17.77;;;0.80;99.90;;;;;;5052812;28;20269;-76
2023/12/08 06:35:22;;;;;;;37.10;18.00;;;0.80;99.90;;;;;;5052649;28;20182;-73
2023/12/08 06:37:50;;;;;;;29.50;18.43;;;0.80;99.90;;;;;;5054200;28;20273;-72
2023/12/08 06:40:16;;;;;;;31.58;17.10;;;0.80;99.90;;;;;;5053990;28;20178;-70
2023/12/08 06:42:41;;;;;;;31.33;20.10;;;0.80;99.90;;;;;;5054195;28;20540;-71
2023/12/08 06:45:07;;;;;;;33.37;17.53;;;0.90;99.90;;;;;;5053054;28;20166;-69
2023/12/08 06:47:33;;;;;;;31.90;18.30;;;0.90;99.90;;;;;;5053050;28;20187;-68
2023/12/08 06:49:59;;;;;;;29.50;17.10;;;0.90;99.90;;;;;;5053897;28;20463;-70
2023/12/08 06:52:25;;;;;;;32.47;19.50;;;0.90;99.90;;;;;;5069567;28;20464;-76
2023/12/08 06:54:50;;;;;;;29.10;18.13;;;0.90;99.90;;;;;;5073422;28;20182;-75
2023/12/08 06:57:16;;;;;;;22.03;14.57;;;1.00;99.90;;;;;;5073826;28;20244;-74
2023/12/08 06:59:42;;;;;;;24.50;18.53;;;1.00;99.90;;;;;;5073752;28;20171;-74
2023/12/08 07:02:07;;;;;;;27.30;16.90;;;1.00;99.90;;;;;;5065484;28;20261;-75
2023/12/08 07:04:33;;;;;;;23.37;14.83;;;1.00;99.90;;;;;;5071730;28;20753;-74
2023/12/08 07:06:59;;;;;;;29.90;15.83;;;0.90;99.90;;;;;;5060389;28;20217;-75
2023/12/08 07:09:24;;;;;;;24.10;14.30;;;1.00;99.90;;;;;;5054376;28;20211;-76
2023/12/08 07:11:50;;;;;;;27.00;15.53;;;0.90;99.90;;;;;;5054169;28;20306;-73
2023/12/08 07:14:16;;;;;;;27.53;15.47;;;1.00;99.90;;;;;;5073591;28;20182;-75
2023/12/08 07:16:45;;;;;;;25.80;15.87;;;0.90;99.90;;;;;;5067140;28;20251;-73
2023/12/08 07:19:11;;;;;;;24.77;15.65;;;0.90;99.90;;;;;;5059698;28;20237;-76
2023/12/08 07:21:43;;;;;;;23.50;16.10;;;1.00;99.90;;;;;;5060672;28;20189;-79
2023/12/08 07:24:10;;;;;;;26.57;15.77;;;1.00;99.90;;;;;;5071282;28;20190;-76
2023/12/08 07:26:36;;;;;;;19.85;13.32;;;1.00;99.90;;;;;;5048259;28;20429;-73
2023/12/08 07:29:02;;;;;;;22.20;14.30;;;1.00;99.90;;;;;;5051504;28;20217;-73
2023/12/08 07:31:28;;;;;;;25.80;14.90;;;1.00;99.90;;;;;;5057622;28;20431;-75
2023/12/08 07:33:54;;;;;;;21.90;15.57;;;1.00;99.90;;;;;;5058177;28;20425;-74
2023/12/08 07:36:19;;;;;;;26.00;15.33;;;1.00;99.90;;;;;;5052034;28;20631;-74
2023/12/08 07:38:45;;;;;;;23.40;15.77;;;1.10;99.90;;;;;;5055572;28;20502;-75
2023/12/08 07:41:11;;;;;;;24.13;15.20;;;1.10;99.90;;;;;;5054613;28;20177;-74
2023/12/08 07:43:37;;;;;;;23.73;15.80;;;1.10;99.90;;;;;;5060419;28;20169;-73
2023/12/08 07:46:03;;;;;;;20.20;13.53;;;1.10;99.90;;;;;;5052079;28;20177;-74
2023/12/08 07:48:29;;;;;;;23.17;14.97;;;1.10;99.90;;;;;;5052580;28;20559;-76
2023/12/08 07:50:55;;;;;;;23.13;15.00;;;1.00;99.90;;;;;;5052964;28;20413;-73
2023/12/08 07:53:21;;;;;;;22.63;14.70;;;1.10;99.90;;;;;;5053170;28;20447;-74
2023/12/08 07:55:47;;;;;;;23.27;14.27;;;1.20;99.90;;;;;;5050495;28;20562;-75
2023/12/08 07:58:13;;;;;;;23.77;15.83;;;1.10;99.90;;;;;;5052589;28;20425;-74
2023/12/08 08:00:38;;;;;;;21.33;14.03;;;1.20;99.90;;;;;;5052983;28;20166;-75
2023/12/08 08:03:04;;;;;;;22.97;14.13;;;1.20;99.90;;;;;;5052918;28;20164;-75
2023/12/08 08:05:30;;;;;;;25.07;15.00;;;1.20;99.90;;;;;;5050379;28;20167;-73
2023/12/08 08:07:56;;;;;;;18.40;13.77;;;1.20;99.90;;;;;;5052867;28;20425;-74
2023/12/08 08:10:22;;;;;;;21.90;14.20;;;1.20;99.90;;;;;;5052655;28;20448;-76
2023/12/08 08:12:48;;;;;;;27.97;15.83;;;1.20;99.90;;;;;;5052756;28;20147;-74
2023/12/08 08:15:14;;;;;;;21.67;15.20;;;1.20;99.90;;;;;;5051676;28;20159;-75
2023/12/08 08:17:40;;;;;;;22.00;14.87;;;1.20;99.90;;;;;;5052775;28;20890;-74
2023/12/08 08:20:07;;;;;;;22.27;14.27;;;1.20;99.90;;;;;;5052760;28;20405;-74
2023/12/08 08:22:33;;;;;;;23.00;14.83;;;1.30;99.90;;;;;;5052670;28;20213;-74
2023/12/08 08:24:59;;;;;;;22.67;15.90;;;1.20;99.90;;;;;;5049970;28;20436;-75
2023/12/08 08:27:25;;;;;;;21.40;15.67;;;1.20;99.90;;;;;;5052740;28;20417;-74
2023/12/08 08:29:51;;;;;;;23.77;14.23;;;1.20;99.90;;;;;;5052585;28;20780;-74
2023/12/08 08:32:17;;;;;;;23.37;15.13;;;1.20;99.90;;;;;;5052139;28;20408;-75
2023/12/08 08:34:43;;;;;;;20.40;14.57;;;1.20;99.90;;;;;;5051948;28;20683;-76
2023/12/08 08:37:09;;;;;;;22.07;15.33;;;1.30;99.90;;;;;;5052467;28;20426;-74
2023/12/08 08:39:35;;;;;;;24.80;15.33;;;1.30;99.90;;;;;;5052597;28;20492;-76
2023/12/08 08:42:00;;;;;;;23.17;14.40;;;1.30;99.90;;;;;;5052701;28;20981;-76
2023/12/08 08:44:27;;;;;;;18.40;13.80;;;1.30;99.90;;;;;;5052248;28;20171;-74
2023/12/08 08:46:53;;;;;;;21.30;14.10;;;1.30;99.90;;;;;;5055915;28;20206;-74
2023/12/08 08:49:19;;;;;;;21.37;14.40;;;1.30;99.90;;;;;;5056059;28;20477;-74
2023/12/08 08:51:45;;;;;;;20.30;12.40;;;1.40;99.90;;;;;;5056335;28;20455;-74
2023/12/08 08:54:11;;;;;;;23.30;14.03;;;1.40;99.90;;;;;;5056334;28;20168;-76
2023/12/08 08:56:36;;;;;;;19.43;13.67;;;1.40;99.90;;;;;;5055801;28;20163;-74
2023/12/08 08:59:03;;;;;;;23.50;15.10;;;1.40;99.90;;;;;;5056289;28;20337;-74
2023/12/08 09:01:29;;;;;;;21.87;14.37;;;1.40;99.90;;;;;;5055616;28;20258;-74
2023/12/08 09:03:54;;;;;;;18.77;13.00;;;1.40;99.90;;;;;;5054975;28;20501;-74
2023/12/08 09:06:20;;;;;;;24.57;13.60;;;1.40;99.90;;;;;;5055307;28;20507;-74
2023/12/08 09:08:46;;;;;;;25.27;14.13;;;1.30;99.90;;;;;;5056076;28;20195;-74
2023/12/08 09:11:12;;;;;;;20.57;13.87;;;1.40;99.90;;;;;;5055746;28;20668;-75
2023/12/08 09:13:38;;;;;;;19.30;13.30;;;1.50;99.90;;;;;;5055938;28;20628;-74
2023/12/08 09:16:04;;;;;;;25.40;13.90;;;1.50;99.90;;;;;;5055412;28;20409;-75
2023/12/08 09:18:30;;;;;;;19.90;14.80;;;1.50;99.90;;;;;;5055838;28;20194;-74
2023/12/08 09:20:56;;;;;;;20.07;14.37;;;1.50;99.90;;;;;;5055795;28;20397;-75
2023/12/08 09:23:21;;;;;;;21.60;14.00;;;1.50;99.90;;;;;;5047159;28;20921;-74
2023/12/08 09:25:47;;;;;;;18.40;15.10;;;1.50;99.90;;;;;;5038727;28;20190;-75
2023/12/08 09:28:15;;;;;;;23.50;13.80;;;1.50;99.90;;;;;;5055858;28;20191;-74
2023/12/08 09:30:42;;;;;;;19.83;13.60;;;1.50;99.90;;;;;;5055618;28;20500;-74
2023/12/08 09:33:09;;;;;;;19.77;13.63;;;1.50;99.90;;;;;;5055690;28;20902;-75
2023/12/08 09:35:35;;;;;;;20.77;14.10;;;1.60;99.90;;;;;;5054823;28;20758;-77
2023/12/08 09:38:01;;;;;;;18.73;13.23;;;1.60;99.90;;;;;;5055339;28;20421;-74
2023/12/08 09:40:28;;;;;;;15.67;13.03;;;1.60;99.90;;;;;;5054984;28;20475;-74
2023/12/08 09:43:02;;;;;;;19.20;12.77;;;1.50;99.90;;;;;;5051040;28;20183;-70
2023/12/08 09:45:28;;;;;;;18.67;12.80;;;1.60;99.90;;;;;;5065914;28;20428;-75
2023/12/08 09:47:55;;;;;;;20.63;13.63;;;1.60;99.90;;;;;;5071341;28;20467;-75
2023/12/08 09:50:22;;;;;;;18.53;13.03;;;1.60;99.90;;;;;;5059480;28;20531;-76
2023/12/08 09:52:48;;;;;;;22.70;15.50;;;1.60;99.90;;;;;;5052887;28;20539;-73
2023/12/08 09:55:16;;;;;;;23.20;12.97;;;1.70;99.90;;;;;;5053732;28;20394;-73
2023/12/08 09:57:45;;;;;;;19.43;12.60;;;1.70;99.90;;;;;;5054384;28;20421;-74
2023/12/08 10:00:15;;;;;;;17.73;13.70;;;1.70;99.90;;;;;;5055830;28;20941;-75
2023/12/08 10:02:41;;;;;;;20.30;12.83;;;1.70;99.90;;;;;;5057756;28;20944;-75
2023/12/08 10:05:08;;;;;;;21.60;13.10;;;1.70;99.90;;;;;;5070951;28;20947;-75
2023/12/08 10:07:35;;;;;;;20.13;14.67;;;1.80;99.90;;;;;;5055846;28;20452;-75
2023/12/08 10:10:02;;;;;;;23.23;14.07;;;1.70;99.90;;;;;;5074932;28;20459;-73
2023/12/08 10:12:28;;;;;;;22.87;14.40;;;1.70;99.90;;;;;;5074968;28;20783;-69
2023/12/08 10:14:58;;;;;;;19.47;13.47;;;1.70;99.90;;;;;;5069686;28;20457;-78
2023/12/08 10:17:24;;;;;;;24.43;14.60;;;1.80;99.90;;;;;;5054134;28;20809;-75
2023/12/08 10:19:53;;;;;;;23.73;14.13;;;1.70;99.90;;;;;;5052226;28;20487;-76
2023/12/08 10:22:19;;;;;;;21.37;14.63;;;1.80;99.90;;;;;;5054745;28;20394;-76
2023/12/08 10:24:46;;;;;;;19.37;13.80;;;1.80;99.90;;;;;;5071473;28;20448;-75
2023/12/08 10:27:11;;;;;;;20.07;14.80;;;1.80;99.90;;;;;;5071634;28;20993;-76
2023/12/08 10:29:37;;;;;;;21.70;13.97;;;1.80;99.90;;;;;;5060420;28;20507;-76
2023/12/08 10:32:08;;;;;;;18.57;13.10;;;1.80;99.90;;;;;;5053104;28;20175;-74
2023/12/08 10:34:33;;;;;;;23.00;13.13;;;1.80;99.90;;;;;;5052216;28;20417;-75
2023/12/08 10:37:00;;;;;;;24.93;15.60;;;1.80;99.90;;;;;;5051184;28;20464;-76
2023/12/08 10:39:26;;;;;;;20.50;13.80;;;1.90;99.90;;;;;;5061246;28;20531;-74
2023/12/08 10:41:52;;;;;;;19.63;14.80;;;1.90;99.90;;;;;;5063466;28;20432;-79
2023/12/08 10:44:21;;;;;;;25.27;14.30;;;1.90;99.90;;;;;;5053995;28;20171;-75
2023/12/08 10:46:48;;;;;;;20.70;14.87;;;2.00;99.90;;;;;;5053119;28;20429;-74
2023/12/08 10:49:19;;;;;;;23.40;15.57;;;1.90;99.90;;;;;;5032069;28;20468;-74
2023/12/08 10:51:49;;;;;;;27.33;14.77;;;1.90;99.90;;;;;;5033887;28;20849;-74
2023/12/08 10:54:17;;;;;;;25.67;15.67;;;1.90;99.90;;;;;;5033628;28;20430;-75
2023/12/08 10:56:46;;;;;;;23.80;15.23;;;1.90;99.90;;;;;;5031901;28;20406;-74
2023/12/08 10:59:18;;;;;;;21.20;14.50;;;1.90;99.90;;;;;;5038858;28;20865;-75
2023/12/08 11:01:46;;;;;;;21.50;14.40;;;1.90;99.90;;;;;;5069014;28;20432;-82
2023/12/08 11:04:14;;;;;;;19.80;14.17;;;1.90;99.90;;;;;;5071798;28;20416;-76
2023/12/08 11:06:53;;;;;;;22.67;14.93;;;1.90;99.90;;;;;;5071490;28;20939;-74
2023/12/08 11:09:22;;;;;;;24.53;15.73;;;1.90;99.90;;;;;;5073263;28;20452;-75
2023/12/08 11:11:54;;;;;;;24.50;16.03;;;2.00;99.90;;;;;;5053524;28;20521;-77
2023/12/08 11:14:41;;;;;;;20.93;14.60;;;1.90;99.90;;;;;;5051980;28;20413;-74
2023/12/08 11:17:55;;;;;;;18.87;14.50;;;1.90;99.90;;;;;;5052028;28;20431;-75
2023/12/08 11:20:21;;;;;;;25.77;16.40;;;2.00;99.90;;;;;;5066883;28;20519;-74
2023/12/08 11:22:48;;;;;;;23.37;15.40;;;1.90;99.90;;;;;;5063551;28;20417;-74
2023/12/08 11:25:38;;;;;;;23.47;14.10;;;2.00;99.90;;;;;;5052199;28;20429;-74
2023/12/08 11:28:11;;;;;;;25.47;17.83;;;2.00;99.90;;;;;;5062100;28;20440;-74
2023/12/08 11:30:52;;;;;;;26.60;16.03;;;2.00;99.90;;;;;;5072736;28;20912;-74
2023/12/08 11:33:40;;;;;;;25.07;15.43;;;2.00;99.90;;;;;;5057275;28;20402;-74
2023/12/08 11:36:09;;;;;;;27.73;16.13;;;2.00;99.90;;;;;;5048862;28;20797;-79
2023/12/08 11:38:37;;;;;;;21.50;15.20;;;2.00;99.90;;;;;;5033180;28;20425;-75
2023/12/08 11:41:15;;;;;;;23.10;15.00;;;2.00;99.90;;;;;;5033279;28;20406;-75
2023/12/08 11:43:43;;;;;;;26.60;16.17;;;2.00;99.90;;;;;;5056357;28;20424;-74
2023/12/08 11:46:09;;;;;;;27.93;16.13;;;2.00;99.90;;;;;;5071037;28;20423;-74
2023/12/08 11:48:36;;;;;;;27.30;16.43;;;2.00;99.90;;;;;;5070173;28;20455;-76
2023/12/08 11:51:04;;;;;;;28.93;15.77;;;2.00;99.90;;;;;;5071228;28;20447;-74
2023/12/08 11:53:46;;;;;;;25.57;15.97;;;2.00;99.90;;;;;;5057787;28;20775;-75
2023/12/08 11:56:41;;;;;;;26.37;17.67;;;2.10;99.90;;;;;;5051038;28;20413;-76
2023/12/08 11:59:07;;;;;;;28.20;15.87;;;2.10;99.90;;;;;;5050728;28;20930;-74
2023/12/08 12:01:37;;;;;;;25.77;17.43;;;2.10;99.90;;;;;;5069418;28;20913;-76
2023/12/08 12:04:03;;;;;;;24.43;16.00;;;2.10;99.90;;;;;;5069484;28;20428;-74
2023/12/08 12:06:30;;;;;;;27.97;15.93;;;2.00;99.90;;;;;;5069367;28;20523;-74
2023/12/08 12:08:59;;;;;;;21.20;15.93;;;2.00;99.90;;;;;;5065196;28;20488;-75
2023/12/08 12:11:31;;;;;;;22.93;17.20;;;1.90;99.90;;;;;;5060547;28;20771;-75
2023/12/08 12:13:59;;;;;;;24.07;17.23;;;1.90;99.90;;;;;;5072347;28;20396;-73
2023/12/08 12:16:25;;;;;;;26.10;16.73;;;1.90;99.90;;;;;;5059277;28;20426;-76
2023/12/08 12:18:52;;;;;;;27.13;17.67;;;1.90;99.90;;;;;;5059765;28;20448;-76
2023/12/08 12:21:19;;;;;;;27.00;17.27;;;1.80;99.90;;;;;;5066027;28;20432;-74
2023/12/08 12:23:46;;;;;;;27.57;18.40;;;1.80;99.90;;;;;;5057287;28;20428;-76
2023/12/08 12:26:13;;;;;;;30.17;16.87;;;1.80;99.90;;;;;;5055510;28;20412;-76
2023/12/08 12:28:39;;;;;;;25.50;17.10;;;1.70;99.90;;;;;;5056737;28;20467;-74
2023/12/08 12:31:05;;;;;;;32.23;18.63;;;1.70;99.90;;;;;;5075285;28;20412;-72
2023/12/08 12:33:30;;;;;;;27.47;16.87;;;1.70;99.90;;;;;;5056747;28;20401;-73